Time;durP1;ratioP1;P1;durP2;ratioP2;P2;SDS_P1;SDS_P2;PMS_P1;PMS_P2;Temp;Humidity;BMP_temperature;BMP_pressure;BME280_temperature;BME280_humidity;BME280_pressure;Samples;Min_cycle;Max_cycle;Signal;HPM_P1;HPM_P2
2024/04/10 00:00:21;;;;;;;5.88;1.10;;;10.40;100.00;;;;;;5263332;27;20010;-72
2024/04/10 00:02:48;;;;;;;2.35;0.73;;;10.40;100.00;;;;;;5281659;27;20021;-72
2024/04/10 00:05:17;;;;;;;4.72;1.42;;;10.40;100.00;;;;;;5263627;27;20558;-72
2024/04/10 00:07:44;;;;;;;7.13;1.38;;;10.40;100.00;;;;;;5270996;27;20006;-72
2024/04/10 00:10:11;;;;;;;4.32;1.08;;;10.40;100.00;;;;;;5268142;27;20070;-71
2024/04/10 00:12:39;;;;;;;4.18;1.40;;;10.40;100.00;;;;;;5238838;27;20007;-72
2024/04/10 00:15:06;;;;;;;5.55;1.30;;;10.40;100.00;;;;;;5269001;27;20015;-72
2024/04/10 00:17:32;;;;;;;2.40;1.20;;;10.50;100.00;;;;;;5265877;27;20006;-72
2024/04/10 00:20:00;;;;;;;3.17;1.05;;;10.50;100.00;;;;;;5278217;27;20010;-72
2024/04/10 00:22:27;;;;;;;5.20;1.27;;;10.50;100.00;;;;;;5270676;27;20633;-72
2024/04/10 00:24:54;;;;;;;7.35;1.30;;;10.40;100.00;;;;;;5269064;27;20009;-73
2024/04/10 00:27:25;;;;;;;9.35;1.17;;;10.40;100.00;;;;;;5267266;27;20007;-72
2024/04/10 00:29:52;;;;;;;4.97;1.17;;;10.40;100.00;;;;;;5254954;27;20024;-72
2024/04/10 00:32:18;;;;;;;5.25;1.75;;;10.40;100.00;;;;;;5262376;27;20006;-72
2024/04/10 00:34:45;;;;;;;3.83;1.38;;;10.30;100.00;;;;;;5236181;27;20836;-72
2024/04/10 00:37:13;;;;;;;6.53;1.00;;;10.30;100.00;;;;;;5275902;27;20017;-72
2024/04/10 00:39:39;;;;;;;8.50;1.20;;;10.30;100.00;;;;;;5247455;27;20013;-72
2024/04/10 00:42:06;;;;;;;7.25;1.20;;;10.20;100.00;;;;;;5270765;27;20002;-72
2024/04/10 00:44:33;;;;;;;3.10;1.48;;;10.20;100.00;;;;;;5266029;27;20017;-72
2024/04/10 00:47:00;;;;;;;3.80;1.00;;;10.20;100.00;;;;;;5276451;27;20014;-72
2024/04/10 00:49:28;;;;;;;10.48;1.65;;;10.10;100.00;;;;;;5279793;27;20010;-72
2024/04/10 00:51:55;;;;;;;4.30;0.95;;;10.10;100.00;;;;;;5264324;27;20709;-72
2024/04/10 00:54:22;;;;;;;5.72;1.38;;;10.10;100.00;;;;;;5268886;27;20017;-71
2024/04/10 00:56:50;;;;;;;4.13;0.93;;;10.10;100.00;;;;;;5264549;27;20022;-71
2024/04/10 00:59:17;;;;;;;4.22;1.17;;;10.10;100.00;;;;;;5283727;27;20020;-71
2024/04/10 01:01:45;;;;;;;2.53;1.02;;;10.10;100.00;;;;;;5274598;27;20010;-72
2024/04/10 01:04:12;;;;;;;6.35;1.58;;;10.10;100.00;;;;;;5263667;27;20081;-72
2024/04/10 01:06:39;;;;;;;3.80;1.52;;;10.00;100.00;;;;;;5268817;27;20002;-72
2024/04/10 01:09:06;;;;;;;5.47;1.40;;;10.00;100.00;;;;;;5266007;27;20021;-72
2024/04/10 01:11:33;;;;;;;5.90;1.15;;;10.00;100.00;;;;;;5275269;26;20003;-71
2024/04/10 01:14:00;;;;;;;6.05;1.30;;;10.00;100.00;;;;;;5266824;27;20018;-71
2024/04/10 01:16:27;;;;;;;7.00;1.40;;;9.90;100.00;;;;;;5265380;27;20085;-71
2024/04/10 01:18:54;;;;;;;7.22;1.48;;;9.90;100.00;;;;;;5262682;27;20485;-71
2024/04/10 01:21:21;;;;;;;4.07;1.27;;;9.90;100.00;;;;;;5264689;27;20003;-71
2024/04/10 01:23:48;;;;;;;3.85;0.93;;;9.90;100.00;;;;;;5278858;26;20009;-72
2024/04/10 01:26:15;;;;;;;7.25;1.55;;;10.00;100.00;;;;;;5265312;27;20014;-72
2024/04/10 01:28:42;;;;;;;3.67;1.45;;;10.00;100.00;;;;;;5229885;27;20025;-72
2024/04/10 01:31:09;;;;;;;1.10;0.80;;;10.00;100.00;;;;;;5279644;27;20001;-72
2024/04/10 01:33:36;;;;;;;4.78;1.23;;;10.00;100.00;;;;;;5267213;27;20672;-72
2024/04/10 01:36:07;;;;;;;1.88;1.13;;;10.00;100.00;;;;;;5266878;27;20006;-72
2024/04/10 01:38:35;;;;;;;5.50;1.30;;;10.00;100.00;;;;;;5264645;27;20017;-72
2024/04/10 01:41:02;;;;;;;3.25;1.10;;;9.90;100.00;;;;;;5264981;27;20656;-72
2024/04/10 01:43:29;;;;;;;3.38;1.33;;;9.90;100.00;;;;;;5262223;27;20014;-71
2024/04/10 01:45:56;;;;;;;3.90;1.27;;;9.90;100.00;;;;;;5273376;27;20133;-72
2024/04/10 01:48:23;;;;;;;4.25;1.10;;;9.90;100.00;;;;;;5250188;27;20021;-72
2024/04/10 01:50:50;;;;;;;3.58;1.02;;;9.90;100.00;;;;;;5273819;27;20022;-72
2024/04/10 01:53:17;;;;;;;5.88;1.25;;;9.90;100.00;;;;;;5265480;27;20017;-72
2024/04/10 01:55:44;;;;;;;2.72;1.02;;;9.90;100.00;;;;;;5278370;27;20026;-72
2024/04/10 01:58:11;;;;;;;2.75;1.30;;;9.90;100.00;;;;;;5277168;27;20017;-72
2024/04/10 02:00:38;;;;;;;4.60;1.20;;;9.80;100.00;;;;;;5258852;27;20017;-72
2024/04/10 02:03:05;;;;;;;4.57;1.30;;;9.90;100.00;;;;;;5277830;27;20013;-72
2024/04/10 02:05:32;;;;;;;7.93;1.25;;;9.90;100.00;;;;;;5267810;27;19999;-72
2024/04/10 02:08:00;;;;;;;10.43;1.60;;;9.90;100.00;;;;;;5275856;27;20014;-72
2024/04/10 02:10:27;;;;;;;6.65;1.10;;;9.90;100.00;;;;;;5270713;27;20556;-72
2024/04/10 02:12:54;;;;;;;5.88;1.50;;;9.90;100.00;;;;;;5270127;27;20010;-72
2024/04/10 02:15:20;;;;;;;2.97;1.17;;;9.90;100.00;;;;;;5268574;27;20084;-72
2024/04/10 02:17:47;;;;;;;2.70;1.27;;;9.90;100.00;;;;;;5270275;27;20009;-72
2024/04/10 02:20:16;;;;;;;4.93;1.42;;;9.80;100.00;;;;;;5250193;27;20816;-72
2024/04/10 02:22:43;;;;;;;6.53;1.30;;;9.80;100.00;;;;;;5264979;27;21266;-72
2024/04/10 02:25:10;;;;;;;3.38;1.15;;;9.80;100.00;;;;;;5247031;27;20002;-72
2024/04/10 02:27:37;;;;;;;4.97;1.50;;;9.80;100.00;;;;;;5268922;27;20383;-72
2024/04/10 02:30:06;;;;;;;5.88;1.45;;;9.80;100.00;;;;;;5270008;27;20363;-72
2024/04/10 02:32:33;;;;;;;5.97;1.50;;;9.80;100.00;;;;;;5271197;27;20014;-72
2024/04/10 02:35:00;;;;;;;3.90;1.23;;;9.80;100.00;;;;;;5297125;26;20026;-72
2024/04/10 02:37:28;;;;;;;9.77;1.48;;;9.80;100.00;;;;;;5271822;27;20006;-72
2024/04/10 02:39:55;;;;;;;2.58;1.38;;;9.80;100.00;;;;;;5300917;26;20017;-72
2024/04/10 02:42:22;;;;;;;5.03;1.60;;;9.80;100.00;;;;;;5244280;27;20014;-72
2024/04/10 02:44:51;;;;;;;4.25;1.35;;;9.70;100.00;;;;;;5273899;27;20017;-72
2024/04/10 02:47:21;;;;;;;8.70;1.38;;;9.70;100.00;;;;;;5278158;27;20022;-71
2024/04/10 02:49:48;;;;;;;10.10;1.15;;;9.70;100.00;;;;;;5270295;27;20331;-71
2024/04/10 02:52:15;;;;;;;4.07;1.13;;;9.70;100.00;;;;;;5264987;27;20018;-71
2024/04/10 02:54:42;;;;;;;6.32;1.50;;;9.70;100.00;;;;;;5273674;27;20164;-71
2024/04/10 02:57:10;;;;;;;4.68;1.33;;;9.60;100.00;;;;;;5282550;27;20005;-80
2024/04/10 02:59:37;;;;;;;7.95;1.75;;;9.60;100.00;;;;;;5308348;26;20012;-81
2024/04/10 03:02:04;;;;;;;6.55;1.48;;;9.60;100.00;;;;;;5283510;27;20497;-81
2024/04/10 03:04:32;;;;;;;4.55;1.00;;;9.60;100.00;;;;;;5280378;27;20490;-81
2024/04/10 03:06:59;;;;;;;6.90;1.60;;;9.50;100.00;;;;;;5288178;27;20006;-81
2024/04/10 03:09:26;;;;;;;2.33;1.33;;;9.50;100.00;;;;;;5289451;27;20823;-81
2024/04/10 03:11:53;;;;;;;5.07;1.73;;;9.60;100.00;;;;;;5295086;27;20315;-81
2024/04/10 03:14:20;;;;;;;3.70;1.50;;;9.50;100.00;;;;;;5272090;27;20066;-78
2024/04/10 03:16:47;;;;;;;6.60;1.65;;;9.50;100.00;;;;;;5275601;27;20020;-76
2024/04/10 03:19:15;;;;;;;3.80;1.65;;;9.50;100.00;;;;;;5256831;27;20042;-79
2024/04/10 03:21:42;;;;;;;4.43;1.70;;;9.50;100.00;;;;;;5276470;27;20014;-79
2024/04/10 03:24:09;;;;;;;9.45;1.85;;;9.50;100.00;;;;;;5235875;27;22186;-79
2024/04/10 03:26:36;;;;;;;7.38;1.33;;;9.40;100.00;;;;;;5275052;27;20088;-79
2024/04/10 03:29:03;;;;;;;8.85;2.28;;;9.40;100.00;;;;;;5275509;27;20017;-79
2024/04/10 03:31:30;;;;;;;7.05;1.80;;;9.40;100.00;;;;;;5269430;27;20002;-78
2024/04/10 03:33:57;;;;;;;5.32;2.28;;;9.40;100.00;;;;;;5267828;27;21015;-78
2024/04/10 03:36:24;;;;;;;8.13;1.98;;;9.40;100.00;;;;;;5284496;27;20094;-80
2024/04/10 03:38:51;;;;;;;4.10;2.00;;;9.40;100.00;;;;;;5280788;27;20002;-80
2024/04/10 03:41:20;;;;;;;12.15;2.00;;;9.40;100.00;;;;;;5280728;27;20022;-80
2024/04/10 03:43:48;;;;;;;11.23;2.20;;;9.40;100.00;;;;;;5272107;27;20979;-80
2024/04/10 03:46:17;;;;;;;6.65;2.00;;;9.50;100.00;;;;;;5306672;26;20015;-80
2024/04/10 03:48:44;;;;;;;10.00;2.10;;;9.40;100.00;;;;;;5288450;27;20007;-80
2024/04/10 03:51:12;;;;;;;9.38;2.03;;;9.50;100.00;;;;;;5281554;27;20020;-80
2024/04/10 03:53:40;;;;;;;9.07;2.03;;;9.50;100.00;;;;;;5284098;27;20006;-81
2024/04/10 03:56:07;;;;;;;6.75;2.00;;;9.50;100.00;;;;;;5271585;27;20043;-79
2024/04/10 03:58:36;;;;;;;10.75;2.08;;;9.50;100.00;;;;;;5281897;27;20005;-79
2024/04/10 04:01:03;;;;;;;10.88;2.00;;;9.60;100.00;;;;;;5285056;27;20010;-79
2024/04/10 04:03:30;;;;;;;12.95;2.78;;;9.60;100.00;;;;;;5285607;27;20561;-78
2024/04/10 04:05:57;;;;;;;6.75;2.10;;;9.60;100.00;;;;;;5284472;27;20010;-79
2024/04/10 04:08:24;;;;;;;12.52;3.15;;;9.60;100.00;;;;;;5274163;27;20021;-79
2024/04/10 04:10:54;;;;;;;8.10;2.10;;;9.60;100.00;;;;;;5240467;27;20366;-79
2024/04/10 04:13:21;;;;;;;4.45;1.92;;;9.60;100.00;;;;;;5273647;27;20116;-79
2024/04/10 04:15:48;;;;;;;10.57;2.40;;;9.60;100.00;;;;;;5258900;27;20560;-78
2024/04/10 04:18:16;;;;;;;8.30;2.13;;;9.60;100.00;;;;;;5265358;27;20036;-79
2024/04/10 04:20:46;;;;;;;21.90;2.85;;;9.60;100.00;;;;;;5289498;27;20363;-79
2024/04/10 04:23:13;;;;;;;7.22;2.40;;;9.60;100.00;;;;;;5278786;27;20337;-79
2024/04/10 04:25:40;;;;;;;8.00;2.25;;;9.60;100.00;;;;;;5277841;27;20006;-78
2024/04/10 04:28:07;;;;;;;12.95;2.20;;;9.60;100.00;;;;;;5278914;27;20084;-79
2024/04/10 04:30:34;;;;;;;5.65;2.13;;;9.50;100.00;;;;;;5240873;27;20021;-79
2024/04/10 04:33:03;;;;;;;10.05;2.72;;;9.50;100.00;;;;;;5273718;27;20002;-79
2024/04/10 04:35:31;;;;;;;8.43;2.60;;;9.60;100.00;;;;;;5312798;26;19997;-84
2024/04/10 04:37:58;;;;;;;6.97;2.58;;;9.50;100.00;;;;;;5286379;27;20401;-84
2024/04/10 04:40:31;;;;;;;14.18;3.13;;;9.50;100.00;;;;;;5282948;27;20076;-84
2024/04/10 04:43:00;;;;;;;17.38;2.65;;;9.60;100.00;;;;;;5263787;27;20010;-83
2024/04/10 04:45:27;;;;;;;9.90;2.45;;;9.60;100.00;;;;;;5278983;27;20087;-78
2024/04/10 04:47:54;;;;;;;8.35;2.38;;;9.60;100.00;;;;;;5280235;27;20016;-77
2024/04/10 04:50:21;;;;;;;10.13;3.22;;;9.60;100.00;;;;;;5287564;27;20522;-82
2024/04/10 04:52:48;;;;;;;13.23;2.35;;;9.60;100.00;;;;;;5284555;27;20058;-80
2024/04/10 04:55:15;;;;;;;12.82;2.72;;;9.60;100.00;;;;;;5278580;27;20010;-81
2024/04/10 04:57:42;;;;;;;8.40;2.97;;;9.60;100.00;;;;;;5271867;27;20010;-80
2024/04/10 05:00:14;;;;;;;17.75;2.58;;;9.60;100.00;;;;;;5266213;27;20021;-77
2024/04/10 05:02:41;;;;;;;8.50;2.60;;;9.60;100.00;;;;;;5271189;27;20002;-79
2024/04/10 05:05:16;;;;;;;9.75;3.38;;;9.60;100.00;;;;;;5278122;27;20002;-81
2024/04/10 05:07:44;;;;;;;9.37;2.77;;;9.60;100.00;;;;;;5265542;27;20014;-82
2024/04/10 05:10:13;;;;;;;5.63;2.28;;;9.70;100.00;;;;;;5272925;27;20014;-79
2024/04/10 05:12:41;;;;;;;9.20;2.65;;;9.70;100.00;;;;;;5269783;27;20459;-81
2024/04/10 05:15:12;;;;;;;9.55;2.80;;;9.60;100.00;;;;;;5276948;27;20081;-76
2024/04/10 05:17:43;;;;;;;7.28;2.00;;;9.70;100.00;;;;;;5266986;27;20037;-76
2024/04/10 05:20:12;;;;;;;9.57;2.55;;;9.60;100.00;;;;;;5249216;27;20014;-76
2024/04/10 05:22:44;;;;;;;8.65;2.63;;;9.60;100.00;;;;;;5270256;27;20021;-80
2024/04/10 05:25:12;;;;;;;10.30;3.63;;;9.70;100.00;;;;;;5240463;27;20266;-80
2024/04/10 05:27:41;;;;;;;6.53;2.40;;;9.70;100.00;;;;;;5245980;27;20783;-78
2024/04/10 05:30:12;;;;;;;6.03;2.40;;;9.70;100.00;;;;;;5276637;27;20010;-74
2024/04/10 05:32:40;;;;;;;13.02;2.50;;;9.70;100.00;;;;;;5267280;27;19999;-80
2024/04/10 05:35:11;;;;;;;5.15;1.90;;;9.70;100.00;;;;;;5293904;27;20009;-81
2024/04/10 05:37:38;;;;;;;11.73;2.25;;;9.70;100.00;;;;;;5276335;27;20019;-79
2024/04/10 05:40:06;;;;;;;92.15;10.32;;;9.70;100.00;;;;;;5270599;27;20002;-78
2024/04/10 05:42:37;;;;;;;11.30;2.22;;;9.80;100.00;;;;;;5235664;27;20021;-76
2024/04/10 05:45:07;;;;;;;4.57;1.70;;;9.80;100.00;;;;;;5264237;27;20422;-78
2024/04/10 05:47:39;;;;;;;5.65;1.40;;;9.80;100.00;;;;;;5280885;27;20553;-75
2024/04/10 05:50:10;;;;;;;8.75;2.03;;;9.80;100.00;;;;;;5255173;27;20014;-76
2024/04/10 05:52:40;;;;;;;6.68;2.08;;;9.80;100.00;;;;;;5310264;26;20842;-76
2024/04/10 05:55:09;;;;;;;5.90;1.38;;;9.80;100.00;;;;;;5277601;27;20007;-76
2024/04/10 05:57:36;;;;;;;8.75;1.67;;;9.90;100.00;;;;;;5277354;27;20002;-76
2024/04/10 06:00:04;;;;;;;2.90;1.35;;;9.80;100.00;;;;;;5262020;27;20016;-75
2024/04/10 06:02:38;;;;;;;3.55;1.42;;;9.90;100.00;;;;;;5278807;27;20025;-77
2024/04/10 06:05:06;;;;;;;4.88;1.35;;;9.90;100.00;;;;;;5256354;27;20015;-76
2024/04/10 06:07:35;;;;;;;6.10;1.20;;;9.90;100.00;;;;;;5259380;27;20821;-76
2024/04/10 06:10:04;;;;;;;4.22;1.20;;;10.00;100.00;;;;;;5275997;27;20014;-77
2024/04/10 06:12:31;;;;;;;4.38;1.00;;;10.00;100.00;;;;;;5275934;27;20081;-77
2024/04/10 06:14:59;;;;;;;4.22;1.15;;;10.00;100.00;;;;;;5279123;27;20002;-78
2024/04/10 06:17:26;;;;;;;6.22;1.30;;;10.00;100.00;;;;;;5263350;27;20084;-78
2024/04/10 06:19:57;;;;;;;3.63;1.05;;;10.00;100.00;;;;;;5262524;27;20002;-78
2024/04/10 06:22:24;;;;;;;9.18;1.85;;;10.10;100.00;;;;;;5277899;27;20501;-78
2024/04/10 06:24:52;;;;;;;3.95;1.30;;;10.10;100.00;;;;;;5276644;27;20028;-78
2024/04/10 06:27:19;;;;;;;7.32;1.33;;;10.00;100.00;;;;;;5274556;27;20003;-77
2024/04/10 06:29:47;;;;;;;8.55;1.65;;;10.10;100.00;;;;;;5283926;27;20006;-78
2024/04/10 06:32:14;;;;;;;3.70;1.50;;;10.10;100.00;;;;;;5281095;27;20022;-78
2024/04/10 06:34:42;;;;;;;4.32;1.15;;;10.10;100.00;;;;;;5265285;27;20037;-78
2024/04/10 06:37:09;;;;;;;5.15;1.65;;;10.10;100.00;;;;;;5266467;27;20726;-78
2024/04/10 06:39:36;;;;;;;14.70;1.95;;;10.00;100.00;;;;;;5283487;27;20010;-78
2024/04/10 06:42:03;;;;;;;10.93;1.10;;;10.00;100.00;;;;;;5256835;27;20582;-78
2024/04/10 06:44:30;;;;;;;4.38;1.30;;;10.00;100.00;;;;;;5284883;27;20006;-78
2024/04/10 06:46:58;;;;;;;17.35;2.40;;;10.00;100.00;;;;;;5267422;27;20043;-78
2024/04/10 06:49:28;;;;;;;46.92;5.20;;;10.10;100.00;;;;;;5262385;27;20014;-78
2024/04/10 06:51:56;;;;;;;52.75;6.85;;;10.00;100.00;;;;;;5275421;27;20022;-77
2024/04/10 06:54:23;;;;;;;3.28;0.90;;;10.00;100.00;;;;;;5285551;27;20002;-79
2024/04/10 06:56:50;;;;;;;5.50;1.35;;;9.90;100.00;;;;;;5279552;27;20006;-78
2024/04/10 06:59:18;;;;;;;7.40;1.58;;;9.60;100.00;;;;;;5283002;27;20025;-78
2024/04/10 07:01:46;;;;;;;27.83;3.95;;;9.50;100.00;;;;;;5282249;27;20006;-78
2024/04/10 07:04:13;;;;;;;49.30;4.97;;;9.10;100.00;;;;;;5281878;27;20026;-78
2024/04/10 07:06:40;;;;;;;216.18;24.10;;;9.00;100.00;;;;;;5286938;27;20003;-78
2024/04/10 07:09:08;;;;;;;14.32;2.63;;;9.00;100.00;;;;;;5279376;27;20050;-77
2024/04/10 07:11:36;;;;;;;6.15;1.92;;;9.10;100.00;;;;;;5279506;27;20006;-77
2024/04/10 07:14:05;;;;;;;12.80;2.85;;;9.10;100.00;;;;;;5278709;27;20006;-78
2024/04/10 07:16:32;;;;;;;5.30;1.75;;;9.00;100.00;;;;;;5280972;27;20441;-78
2024/04/10 07:18:59;;;;;;;12.30;2.95;;;9.20;100.00;;;;;;5283336;27;20735;-78
2024/04/10 07:21:27;;;;;;;77.88;6.57;;;9.20;100.00;;;;;;5283999;27;20005;-77
2024/04/10 07:23:54;;;;;;;10.43;2.42;;;9.40;100.00;;;;;;5282224;27;19997;-77
2024/04/10 07:26:27;;;;;;;10.23;2.58;;;9.40;100.00;;;;;;5283920;27;20006;-77
2024/04/10 07:28:56;;;;;;;5.30;1.50;;;9.40;100.00;;;;;;5282119;27;20899;-77
2024/04/10 07:31:28;;;;;;;17.60;3.20;;;9.50;100.00;;;;;;5280057;27;20010;-77
2024/04/10 07:33:59;;;;;;;4.88;2.05;;;9.60;100.00;;;;;;5278014;27;20006;-77
2024/04/10 07:36:26;;;;;;;10.75;2.38;;;9.70;100.00;;;;;;5276215;27;20080;-77
2024/04/10 07:38:55;;;;;;;36.53;5.97;;;9.80;100.00;;;;;;5273069;27;20467;-77
2024/04/10 07:41:22;;;;;;;13.45;2.45;;;9.90;100.00;;;;;;5279224;27;20088;-77
2024/04/10 07:43:49;;;;;;;147.90;18.30;;;10.10;100.00;;;;;;5278195;27;20003;-77
2024/04/10 07:46:18;;;;;;;4.68;1.60;;;10.30;100.00;;;;;;5281946;27;20809;-77
2024/04/10 07:48:56;;;;;;;3.78;1.17;;;10.40;100.00;;;;;;5279003;27;20010;-77
2024/04/10 07:51:25;;;;;;;3.00;0.90;;;10.80;100.00;;;;;;5282242;27;20797;-78
2024/04/10 07:53:52;;;;;;;4.28;0.70;;;10.90;100.00;;;;;;5282345;27;20014;-79
2024/04/10 07:56:19;;;;;;;5.90;1.33;;;10.90;100.00;;;;;;5278715;27;20395;-77
2024/04/10 07:58:46;;;;;;;3.33;1.35;;;11.10;100.00;;;;;;5285242;27;20096;-77
2024/04/10 08:01:13;;;;;;;4.60;0.88;;;11.10;100.00;;;;;;5281545;27;19999;-76
2024/04/10 08:03:45;;;;;;;7.32;0.75;;;11.10;100.00;;;;;;5282860;27;20006;-77
2024/04/10 08:06:12;;;;;;;2.97;0.85;;;11.10;100.00;;;;;;5261752;27;20002;-77
2024/04/10 08:08:42;;;;;;;7.82;0.52;;;11.20;100.00;;;;;;5282623;27;20024;-78
2024/04/10 08:11:14;;;;;;;4.38;0.80;;;11.20;100.00;;;;;;5280885;27;20010;-77
2024/04/10 08:13:41;;;;;;;2.03;0.47;;;11.10;100.00;;;;;;5274818;27;20006;-77
2024/04/10 08:16:12;;;;;;;3.03;0.80;;;11.50;100.00;;;;;;5278275;27;20006;-77
2024/04/10 08:18:41;;;;;;;3.08;0.50;;;11.80;100.00;;;;;;5259690;27;20116;-77
2024/04/10 08:21:10;;;;;;;1.85;0.40;;;12.00;100.00;;;;;;5277879;27;20002;-77
2024/04/10 08:23:38;;;;;;;4.97;0.90;;;12.00;100.00;;;;;;5282763;27;20327;-77
2024/04/10 08:26:12;;;;;;;6.90;1.00;;;11.80;100.00;;;;;;5282259;27;20024;-76
2024/04/10 08:28:45;;;;;;;5.03;0.68;;;11.80;100.00;;;;;;5282414;27;20797;-77
2024/04/10 08:31:14;;;;;;;7.60;0.63;;;11.80;100.00;;;;;;5278968;27;20006;-77
2024/04/10 08:33:45;;;;;;;8.38;1.35;;;11.90;100.00;;;;;;5284900;27;20010;-77
2024/04/10 08:36:14;;;;;;;2.35;0.50;;;11.90;100.00;;;;;;5285033;27;20016;-77
2024/04/10 08:38:42;;;;;;;5.78;0.82;;;11.80;100.00;;;;;;5282494;27;20161;-77
2024/04/10 08:41:18;;;;;;;3.38;1.00;;;11.70;100.00;;;;;;5278102;27;20081;-77
2024/04/10 08:43:47;;;;;;;5.07;0.75;;;12.00;100.00;;;;;;5261428;27;20878;-77
2024/04/10 08:46:15;;;;;;;4.28;0.90;;;12.00;100.00;;;;;;5283352;27;20002;-77
2024/04/10 08:48:44;;;;;;;6.55;0.98;;;12.00;100.00;;;;;;5285706;27;20003;-77
2024/04/10 08:51:13;;;;;;;1.85;0.47;;;12.00;100.00;;;;;;5287727;27;20007;-77
2024/04/10 08:53:42;;;;;;;1.77;0.60;;;12.00;100.00;;;;;;5282767;27;20724;-78
2024/04/10 08:56:15;;;;;;;13.05;0.95;;;12.10;100.00;;;;;;5281931;27;20016;-77
2024/04/10 08:58:44;;;;;;;2.58;0.80;;;11.90;100.00;;;;;;5289327;27;20029;-77
2024/04/10 09:01:25;;;;;;;6.85;0.80;;;12.00;100.00;;;;;;5275827;27;20021;-77
2024/04/10 09:03:52;;;;;;;8.88;1.10;;;12.00;100.00;;;;;;5281327;27;20327;-77
2024/04/10 09:06:20;;;;;;;5.78;1.13;;;11.70;100.00;;;;;;5283098;27;20703;-77
2024/04/10 09:08:58;;;;;;;9.35;1.00;;;11.70;100.00;;;;;;5260389;27;20006;-77
2024/04/10 09:11:25;;;;;;;10.55;0.98;;;11.60;100.00;;;;;;5289836;27;20013;-77
2024/04/10 09:14:10;;;;;;;7.18;0.80;;;11.70;100.00;;;;;;5281979;27;20132;-77
2024/04/10 09:16:38;;;;;;;;;;;11.60;100.00;;;;;;5260453;27;20021;-77
2024/04/10 09:19:17;;;;;;;13.90;2.00;;;11.50;100.00;;;;;;5283836;27;19986;-77
2024/04/10 09:22:10;;;;;;;9.23;1.08;;;11.40;100.00;;;;;;5277929;27;20001;-77
2024/04/10 09:24:37;;;;;;;5.80;1.02;;;11.20;100.00;;;;;;5276544;27;20506;-77
2024/04/10 09:27:10;;;;;;;5.60;0.90;;;11.00;100.00;;;;;;5285079;27;20328;-77
2024/04/10 09:29:37;;;;;;;6.45;1.15;;;10.90;100.00;;;;;;5259380;27;20053;-77
2024/04/10 09:32:07;;;;;;;8.70;1.73;;;10.90;100.00;;;;;;5282320;27;20584;-78
2024/04/10 09:34:34;;;;;;;5.75;1.10;;;10.70;100.00;;;;;;5281002;27;20009;-78
2024/04/10 09:37:04;;;;;;;8.05;1.02;;;10.60;100.00;;;;;;5254226;27;20656;-77
2024/04/10 09:39:31;;;;;;;6.13;0.95;;;10.60;100.00;;;;;;5282442;27;20017;-77
2024/04/10 09:41:59;;;;;;;2.28;0.50;;;10.40;100.00;;;;;;5281567;27;20018;-77
2024/04/10 09:44:31;;;;;;;2.00;0.73;;;10.20;100.00;;;;;;5274223;27;20007;-79
2024/04/10 09:47:00;;;;;;;6.03;0.82;;;10.30;100.00;;;;;;5274750;27;20001;-77
2024/04/10 09:49:40;;;;;;;9.88;1.33;;;10.40;100.00;;;;;;5279081;27;20982;-77
2024/04/10 09:52:12;;;;;;;5.05;0.85;;;10.50;100.00;;;;;;5270968;27;20021;-77
2024/04/10 09:54:40;;;;;;;3.30;0.55;;;11.10;100.00;;;;;;5281404;27;20005;-77
2024/04/10 09:57:13;;;;;;;7.85;1.23;;;11.80;100.00;;;;;;5256671;27;20014;-77
2024/04/10 09:59:41;;;;;;;6.07;0.85;;;12.80;100.00;;;;;;5277434;27;20028;-78
2024/04/10 10:02:16;;;;;;;2.05;0.68;;;13.90;100.00;;;;;;5261716;27;20018;-78
2024/04/10 10:04:44;;;;;;;2.47;0.90;;;14.80;100.00;;;;;;5276066;27;20832;-78
2024/04/10 10:07:20;;;;;;;8.43;0.77;;;15.30;100.00;;;;;;5289205;27;20020;-78
2024/04/10 10:09:48;;;;;;;13.23;2.17;;;16.00;100.00;;;;;;5315868;26;20002;-79
2024/04/10 10:12:27;;;;;;;5.93;0.98;;;17.20;100.00;;;;;;5283927;27;20017;-79
2024/04/10 10:15:09;;;;;;;9.05;1.38;;;16.70;100.00;;;;;;5281673;27;20787;-78
2024/04/10 10:17:37;;;;;;;11.65;1.00;;;16.10;100.00;;;;;;5330186;26;20080;-79
2024/04/10 10:20:22;;;;;;;5.65;1.17;;;15.50;100.00;;;;;;5289381;27;20119;-79
2024/04/10 10:22:57;;;;;;;10.07;1.15;;;14.90;100.00;;;;;;5260998;27;20084;-76
2024/04/10 10:25:24;;;;;;;11.55;1.30;;;14.70;100.00;;;;;;5282679;27;20073;-75
2024/04/10 10:28:01;;;;;;;5.07;0.63;;;14.10;100.00;;;;;;5286726;27;20005;-79
2024/04/10 10:30:28;;;;;;;8.95;1.00;;;13.70;100.00;;;;;;5263822;27;20021;-77
2024/04/10 10:33:05;;;;;;;5.82;1.13;;;13.30;100.00;;;;;;5278762;27;20037;-76
2024/04/10 10:35:33;;;;;;;1.80;0.68;;;13.20;100.00;;;;;;5278916;27;20125;-76
2024/04/10 10:38:04;;;;;;;4.15;0.80;;;13.40;100.00;;;;;;5279212;27;20016;-76
2024/04/10 10:40:33;;;;;;;3.83;1.20;;;13.30;100.00;;;;;;5259587;27;20034;-75
2024/04/10 10:43:05;;;;;;;12.05;1.45;;;13.80;100.00;;;;;;5316176;26;20005;-76
2024/04/10 10:45:33;;;;;;;4.90;0.82;;;14.20;100.00;;;;;;5280247;27;20002;-76
2024/04/10 10:48:03;;;;;;;4.35;1.33;;;14.30;100.00;;;;;;5277616;27;20005;-76
2024/04/10 10:50:31;;;;;;;7.35;1.15;;;14.20;100.00;;;;;;5278101;27;19997;-76
2024/04/10 10:53:00;;;;;;;10.45;0.95;;;14.60;100.00;;;;;;5256416;27;20022;-76
2024/04/10 10:55:27;;;;;;;7.97;1.98;;;14.40;100.00;;;;;;5280550;27;20020;-76
2024/04/10 10:58:04;;;;;;;11.98;1.17;;;14.10;100.00;;;;;;5278980;27;20006;-76
2024/04/10 11:00:33;;;;;;;9.27;1.13;;;13.70;100.00;;;;;;5278817;27;20014;-76
2024/04/10 11:03:05;;;;;;;7.85;0.98;;;13.60;100.00;;;;;;5279295;27;20014;-76
2024/04/10 11:05:49;;;;;;;8.35;1.20;;;13.70;100.00;;;;;;5278698;27;20028;-76
2024/04/10 11:08:25;;;;;;;10.18;1.00;;;13.90;100.00;;;;;;5282405;27;20130;-76
2024/04/10 11:10:53;;;;;;;4.32;0.90;;;14.10;100.00;;;;;;5281860;27;20012;-75
2024/04/10 11:13:20;;;;;;;4.53;0.75;;;14.20;100.00;;;;;;5279759;27;20037;-76
2024/04/10 11:15:49;;;;;;;11.15;0.80;;;14.40;100.00;;;;;;5259985;27;20088;-76
2024/04/10 11:18:19;;;;;;;9.85;1.20;;;14.50;100.00;;;;;;5280172;27;20010;-76
2024/04/10 11:20:48;;;;;;;14.88;1.38;;;15.20;100.00;;;;;;5280132;27;20629;-76
2024/04/10 11:23:15;;;;;;;12.15;1.05;;;15.90;100.00;;;;;;5282903;27;20053;-76
2024/04/10 11:25:42;;;;;;;6.65;0.88;;;15.70;100.00;;;;;;5276787;27;20031;-76
2024/04/10 11:28:10;;;;;;;9.85;1.05;;;15.10;100.00;;;;;;5280966;27;20017;-76
2024/04/10 11:30:37;;;;;;;8.77;1.05;;;14.60;100.00;;;;;;5282053;27;20017;-76
2024/04/10 11:33:06;;;;;;;8.68;1.00;;;14.70;100.00;;;;;;5278440;27;20010;-76
2024/04/10 11:35:37;;;;;;;8.18;1.20;;;14.60;100.00;;;;;;5282677;27;19998;-76
2024/04/10 11:38:04;;;;;;;6.75;1.40;;;14.50;100.00;;;;;;5281042;27;20725;-76
2024/04/10 11:40:32;;;;;;;10.32;1.48;;;14.90;100.00;;;;;;5254522;27;20072;-75
2024/04/10 11:42:59;;;;;;;14.00;1.33;;;15.10;100.00;;;;;;5280023;27;20002;-76
2024/04/10 11:45:26;;;;;;;5.80;1.00;;;15.00;100.00;;;;;;5278791;27;19998;-75
2024/04/10 11:47:55;;;;;;;9.20;1.23;;;14.70;100.00;;;;;;5277976;27;20425;-75
2024/04/10 11:50:22;;;;;;;7.35;1.23;;;14.70;100.00;;;;;;5278003;27;20006;-75
2024/04/10 11:52:49;;;;;;;8.32;1.23;;;14.60;100.00;;;;;;5279830;27;20117;-76
2024/04/10 11:55:16;;;;;;;4.25;1.20;;;14.60;100.00;;;;;;5279221;27;20002;-76
2024/04/10 11:57:45;;;;;;;7.13;1.40;;;14.80;100.00;;;;;;5280071;27;20852;-76
2024/04/10 12:00:14;;;;;;;11.90;1.63;;;15.30;100.00;;;;;;5276608;27;20010;-76
2024/04/10 12:02:42;;;;;;;10.35;1.55;;;15.50;100.00;;;;;;5278250;27;19999;-76
2024/04/10 12:05:10;;;;;;;9.50;1.83;;;15.50;100.00;;;;;;5278533;27;20003;-76
2024/04/10 12:07:38;;;;;;;9.10;1.58;;;15.50;100.00;;;;;;5282157;27;19998;-76
2024/04/10 12:10:06;;;;;;;12.13;1.25;;;16.30;100.00;;;;;;5278886;27;20006;-76
2024/04/10 12:12:33;;;;;;;5.82;1.00;;;15.80;94.20;;;;;;5279228;27;20125;-75
2024/04/10 12:15:01;;;;;;;6.78;1.15;;;15.30;93.30;;;;;;5277795;27;20014;-75
2024/04/10 12:17:29;;;;;;;7.55;1.70;;;15.60;94.30;;;;;;5256593;27;20093;-75
2024/04/10 12:19:57;;;;;;;6.78;1.38;;;16.10;92.30;;;;;;5275897;27;20513;-76
2024/04/10 12:22:24;;;;;;;5.57;1.02;;;15.90;87.60;;;;;;5278762;27;20029;-76
2024/04/10 12:24:51;;;;;;;7.55;1.25;;;15.90;80.80;;;;;;5258004;27;20014;-76
2024/04/10 12:27:18;;;;;;;7.47;1.08;;;16.30;82.80;;;;;;5277972;27;20009;-76
2024/04/10 12:29:45;;;;;;;3.97;1.20;;;17.60;84.70;;;;;;5260040;27;20013;-76
2024/04/10 12:32:13;;;;;;;7.78;2.50;;;18.70;66.40;;;;;;5281041;27;20002;-72
2024/04/10 12:34:41;;;;;;;4.55;1.23;;;18.50;54.20;;;;;;5281573;27;20049;-71
2024/04/10 12:39:53;;;;;;;4.63;1.00;;;18.80;53.70;;;;;;5275169;27;20470;-71
2024/04/10 12:42:20;;;;;;;6.15;0.82;;;19.70;54.90;;;;;;5281714;27;20675;-71
2024/04/10 12:44:47;;;;;;;7.78;0.90;;;20.40;50.10;;;;;;5281798;27;20049;-71
2024/04/10 12:47:14;;;;;;;9.73;1.33;;;20.10;47.50;;;;;;5282360;27;20016;-72
2024/04/10 12:49:42;;;;;;;7.22;1.50;;;19.30;48.80;;;;;;5279400;27;19998;-71